createdAt,value
2024-02-24T00:00:11.531Z,95256.03
2024-02-24T00:02:37.970Z,95265.56
2024-02-24T00:05:04.827Z,95256.66
2024-02-24T00:07:31.224Z,95254.22
2024-02-24T00:09:57.592Z,95261.31
2024-02-24T00:12:23.958Z,95270.06
2024-02-24T00:14:50.346Z,95269.31
2024-02-24T00:17:16.774Z,95272.16
2024-02-24T00:19:43.130Z,95266.59
2024-02-24T00:22:09.458Z,95272.78
2024-02-24T00:24:35.834Z,95275.03
2024-02-24T00:27:02.181Z,95280.75
2024-02-24T00:29:29.836Z,95280.44
2024-02-24T00:31:56.201Z,95280.75
2024-02-24T00:34:22.578Z,95285.72
2024-02-24T00:36:48.919Z,95285.53
2024-02-24T00:39:15.268Z,95286.31
2024-02-24T00:41:41.832Z,95281.13
2024-02-24T00:44:09.737Z,95278.75
2024-02-24T00:46:36.707Z,95280.84
2024-02-24T00:49:03.064Z,95284.16
2024-02-24T00:51:29.455Z,95268.44
2024-02-24T00:53:56.122Z,95276.00
2024-02-24T00:56:22.721Z,95276.97
2024-02-24T00:58:49.168Z,95278.19
2024-02-24T01:01:15.556Z,95277.69
2024-02-24T01:03:41.989Z,95266.19
2024-02-24T01:06:08.379Z,95283.44
2024-02-24T01:08:34.750Z,95278.88
2024-02-24T01:11:01.179Z,95288.06
2024-02-24T01:13:27.613Z,95275.53
2024-02-24T01:15:53.945Z,95298.47
2024-02-24T01:18:22.021Z,95291.41
2024-02-24T01:20:49.644Z,95285.81
2024-02-24T01:23:17.644Z,95287.78
2024-02-24T01:25:45.305Z,95263.31
2024-02-24T01:28:11.738Z,95277.09
2024-02-24T01:30:38.155Z,95273.03
2024-02-24T01:33:07.513Z,95274.53
2024-02-24T01:35:34.918Z,95273.34
2024-02-24T01:38:01.304Z,95283.94
2024-02-24T01:40:27.663Z,95276.09
2024-02-24T01:42:54.904Z,95282.56
2024-02-24T01:45:21.711Z,95277.75
2024-02-24T01:47:48.254Z,95289.53
2024-02-24T01:50:15.429Z,95270.81
2024-02-24T01:52:43.676Z,95288.03
2024-02-24T01:55:10.824Z,95277.75
2024-02-24T01:57:43.534Z,95292.13
2024-02-24T02:00:10.779Z,95276.00
2024-02-24T02:02:41.112Z,95289.13
2024-02-24T02:05:08.456Z,95274.16
2024-02-24T02:07:36.149Z,95277.03
2024-02-24T02:10:02.752Z,95288.97
2024-02-24T02:12:29.253Z,95284.16
2024-02-24T02:14:56.302Z,95282.47
2024-02-24T02:17:22.910Z,95272.03
2024-02-24T02:19:49.516Z,95272.03
2024-02-24T02:22:17.306Z,95271.75
2024-02-24T02:24:47.354Z,95275.38
2024-02-24T02:27:13.715Z,95270.25
2024-02-24T02:29:40.108Z,95280.81
2024-02-24T02:32:08.939Z,95275.38
2024-02-24T02:34:35.612Z,95277.94
2024-02-24T02:37:01.985Z,95275.53
2024-02-24T02:39:28.615Z,95265.41
2024-02-24T02:41:54.966Z,95275.66
2024-02-24T02:44:21.396Z,95286.53
2024-02-24T02:46:48.711Z,95279.16
2024-02-24T02:49:16.430Z,95291.53
2024-02-24T02:51:42.861Z,95289.72
2024-02-24T02:54:09.224Z,95290.91
2024-02-24T02:56:35.641Z,95306.78
2024-02-24T02:59:02.062Z,95311.78
2024-02-24T03:01:29.437Z,95307.09
2024-02-24T03:03:55.882Z,95307.25
2024-02-24T03:06:22.285Z,95306.16
2024-02-24T03:08:48.741Z,95303.59
2024-02-24T03:11:17.066Z,95302.88
2024-02-24T03:13:43.844Z,95294.25
2024-02-24T03:16:10.396Z,95315.41
2024-02-24T03:18:36.803Z,95313.31
2024-02-24T03:21:03.645Z,95314.34
2024-02-24T03:23:30.051Z,95322.84
2024-02-24T03:25:56.430Z,95324.47
2024-02-24T03:28:22.834Z,95329.03
2024-02-24T03:30:49.170Z,95311.63
2024-02-24T03:33:15.933Z,95320.38
2024-02-24T03:35:42.424Z,95316.47
2024-02-24T03:38:08.805Z,95314.69
2024-02-24T03:40:35.488Z,95322.50
2024-02-24T03:43:01.836Z,95325.41
2024-02-24T03:45:28.176Z,95321.94
2024-02-24T03:47:54.673Z,95316.16
2024-02-24T03:50:21.182Z,95327.19
2024-02-24T03:52:47.531Z,95314.81
2024-02-24T03:55:13.937Z,95321.19
2024-02-24T03:57:40.274Z,95326.16
2024-02-24T04:00:07.460Z,95328.72
2024-02-24T04:02:33.846Z,95324.19
2024-02-24T04:05:01.939Z,95321.31
2024-02-24T04:07:28.266Z,95324.50
2024-02-24T04:09:54.630Z,95330.09
2024-02-24T04:12:21.031Z,95328.72
2024-02-24T04:14:47.523Z,95338.97
2024-02-24T04:17:13.923Z,95321.63
2024-02-24T04:19:40.263Z,95337.78
2024-02-24T04:22:06.597Z,95339.47
2024-02-24T04:24:32.944Z,95348.81
2024-02-24T04:26:59.300Z,95350.78
2024-02-24T04:29:25.631Z,95342.31
2024-02-24T04:31:52.454Z,95347.31
2024-02-24T04:34:18.846Z,95339.00
2024-02-24T04:36:45.351Z,95332.94
2024-02-24T04:39:11.740Z,95345.19
2024-02-24T04:41:38.619Z,95347.75
2024-02-24T04:44:05.191Z,95353.81
2024-02-24T04:46:31.654Z,95349.88
2024-02-24T04:48:58.153Z,95351.53
2024-02-24T04:51:24.557Z,95342.47
2024-02-24T04:53:51.070Z,95329.00
2024-02-24T04:56:18.900Z,95348.19
2024-02-24T04:58:45.389Z,95336.41
2024-02-24T05:01:11.850Z,95338.06
2024-02-24T05:03:38.425Z,95343.53
2024-02-24T05:06:06.615Z,95346.69
2024-02-24T05:08:34.312Z,95365.28
2024-02-24T05:11:01.486Z,95355.47
2024-02-24T05:13:27.847Z,95351.69
2024-02-24T05:15:54.230Z,95354.88
2024-02-24T05:18:20.687Z,95352.28
2024-02-24T05:20:47.195Z,95350.31
2024-02-24T05:23:13.666Z,95357.88
2024-02-24T05:25:40.020Z,95359.09
2024-02-24T05:28:06.405Z,95350.19
2024-02-24T05:30:32.738Z,95354.09
2024-02-24T05:32:59.326Z,95344.59
2024-02-24T05:35:25.821Z,95367.09
2024-02-24T05:37:52.217Z,95363.16
2024-02-24T05:40:18.746Z,95367.69
2024-02-24T05:42:45.111Z,95369.97
2024-02-24T05:45:11.509Z,95371.63
2024-02-24T05:47:38.154Z,95379.63
2024-02-24T05:50:05.177Z,95376.00
2024-02-24T05:52:31.974Z,95384.94
2024-02-24T05:54:58.305Z,95378.72
2024-02-24T05:57:25.287Z,95395.50
2024-02-24T05:59:51.666Z,95393.06
2024-02-24T06:02:18.121Z,95394.59
2024-02-24T06:04:44.509Z,95403.19
2024-02-24T06:07:10.862Z,95400.00
2024-02-24T06:09:37.226Z,95399.88
2024-02-24T06:12:04.187Z,95403.34
2024-02-24T06:14:30.876Z,95399.84
2024-02-24T06:16:57.264Z,95408.19
2024-02-24T06:19:23.611Z,95406.81
2024-02-24T06:21:50.257Z,95417.25
2024-02-24T06:24:16.660Z,95406.81
2024-02-24T06:26:43.073Z,95423.44
2024-02-24T06:29:09.686Z,95416.31
2024-02-24T06:31:36.033Z,95424.94
2024-02-24T06:34:05.171Z,95432.66
2024-02-24T06:36:33.534Z,95434.44
2024-02-24T06:38:59.888Z,95428.06
2024-02-24T06:41:26.310Z,95446.53
2024-02-24T06:43:52.845Z,95432.44
2024-02-24T06:46:19.227Z,95452.25
2024-02-24T06:48:47.113Z,95453.63
2024-02-24T06:51:13.637Z,95456.94
2024-02-24T06:53:40.064Z,95457.53
2024-02-24T06:56:09.903Z,95465.41
2024-02-24T06:58:36.947Z,95464.94
2024-02-24T07:01:06.664Z,95457.84
2024-02-24T07:03:34.181Z,95461.91
2024-02-24T07:06:02.138Z,95457.09
2024-02-24T07:08:29.223Z,95463.44
2024-02-24T07:10:55.625Z,95459.19
2024-02-24T07:13:23.268Z,95453.44
2024-02-24T07:15:49.669Z,95466.41
2024-02-24T07:18:16.110Z,95470.69
2024-02-24T07:20:42.641Z,95478.53
2024-02-24T07:23:09.021Z,95493.53
2024-02-24T07:25:35.360Z,95497.59
2024-02-24T07:28:01.761Z,95496.56
2024-02-24T07:30:28.113Z,95495.66
2024-02-24T07:32:54.833Z,95504.84
2024-02-24T07:35:21.272Z,95511.38
2024-02-24T07:37:47.629Z,95501.38
2024-02-24T07:40:13.975Z,95519.13
2024-02-24T07:42:40.307Z,95513.34
2024-02-24T07:45:08.151Z,95514.84
2024-02-24T07:47:35.035Z,95512.44
2024-02-24T07:50:01.428Z,95528.19
2024-02-24T07:52:28.324Z,95526.97
2024-02-24T07:54:54.684Z,95523.50
2024-02-24T07:57:21.013Z,95532.09
2024-02-24T07:59:47.419Z,95532.59
2024-02-24T08:02:13.855Z,95538.19
2024-02-24T08:04:40.297Z,95540.91
2024-02-24T08:07:06.677Z,95540.75
2024-02-24T08:09:33.067Z,95546.66
2024-02-24T08:12:00.889Z,95545.44
2024-02-24T08:14:27.583Z,95551.22
2024-02-24T08:16:54.002Z,95556.47
2024-02-24T08:19:20.368Z,95560.88
2024-02-24T08:21:46.715Z,95555.72
2024-02-24T08:24:17.263Z,95563.16
2024-02-24T08:26:45.549Z,95563.59
2024-02-24T08:29:12.132Z,95575.41
2024-02-24T08:31:39.561Z,95579.47
2024-02-24T08:34:06.161Z,95580.81
2024-02-24T08:36:32.839Z,95584.47
2024-02-24T08:39:00.738Z,95578.25
2024-02-24T08:41:27.801Z,95585.69
2024-02-24T08:43:54.367Z,95592.91
2024-02-24T08:46:21.484Z,95595.47
2024-02-24T08:48:48.148Z,95615.00
2024-02-24T08:51:14.528Z,95622.75
2024-02-24T08:53:40.860Z,95608.38
2024-02-24T08:56:07.621Z,95615.50
2024-02-24T08:58:33.968Z,95637.28
2024-02-24T09:01:00.429Z,95638.03
2024-02-24T09:03:26.862Z,95639.25
2024-02-24T09:05:53.438Z,95633.63
2024-02-24T09:08:19.887Z,95645.56
2024-02-24T09:10:46.315Z,95652.53
2024-02-24T09:13:13.233Z,95648.50
2024-02-24T09:15:39.560Z,95653.38
2024-02-24T09:18:08.225Z,95642.81
2024-02-24T09:20:36.474Z,95662.50
2024-02-24T09:23:04.056Z,95665.41
2024-02-24T09:25:30.865Z,95675.84
2024-02-24T09:27:57.246Z,95672.97
2024-02-24T09:30:24.504Z,95677.97
2024-02-24T09:32:50.967Z,95677.03
2024-02-24T09:35:17.576Z,95689.00
2024-02-24T09:37:43.914Z,95684.03
2024-02-24T09:40:10.579Z,95704.00
2024-02-24T09:42:36.957Z,95702.72
2024-02-24T09:45:03.727Z,95726.28
2024-02-24T09:47:30.922Z,95710.91
2024-02-24T09:49:58.911Z,95708.41
2024-02-24T09:52:25.359Z,95720.38
2024-02-24T09:54:51.723Z,95733.56
2024-02-24T09:57:19.554Z,95742.78
2024-02-24T09:59:46.798Z,95741.63
2024-02-24T10:02:13.372Z,95747.72
2024-02-24T10:04:39.925Z,95743.50
2024-02-24T10:07:06.886Z,95740.50
2024-02-24T10:09:34.215Z,95740.31
2024-02-24T10:12:02.082Z,95743.34
2024-02-24T10:14:30.465Z,95757.59
2024-02-24T10:16:59.746Z,95750.94
2024-02-24T10:19:36.601Z,95760.22
2024-02-24T10:22:05.327Z,95759.88
2024-02-24T10:24:34.673Z,95769.69
2024-02-24T10:27:02.606Z,95771.09
2024-02-24T10:29:32.513Z,95773.41
2024-02-24T10:31:59.944Z,95773.13
2024-02-24T10:34:29.404Z,95771.50
2024-02-24T10:36:58.978Z,95770.69
2024-02-24T10:39:26.765Z,95777.19
2024-02-24T10:41:54.076Z,95786.41
2024-02-24T10:44:23.486Z,95766.41
2024-02-24T10:46:50.779Z,95782.38
2024-02-24T10:49:17.470Z,95773.13
2024-02-24T10:51:47.375Z,95791.63
2024-02-24T10:54:18.976Z,95770.41
2024-02-24T10:56:47.267Z,95776.19
2024-02-24T10:59:13.751Z,95770.16
2024-02-24T11:01:47.279Z,95786.34
2024-02-24T11:04:16.849Z,95786.84
2024-02-24T11:06:44.998Z,95779.22
2024-02-24T11:09:36.984Z,95787.28
2024-02-24T11:12:09.397Z,95788.09
2024-02-24T11:14:44.161Z,95774.34
2024-02-24T11:17:12.168Z,95785.09
2024-02-24T11:19:42.944Z,95793.63
2024-02-24T11:22:13.324Z,95785.28
2024-02-24T11:24:39.761Z,95804.66
2024-02-24T11:27:06.673Z,95788.91
2024-02-24T11:29:37.715Z,95798.72
2024-02-24T11:32:13.021Z,95794.44
2024-02-24T11:34:45.160Z,95802.31
2024-02-24T11:37:16.450Z,95790.22
2024-02-24T11:39:44.723Z,95788.69
2024-02-24T11:42:12.781Z,95781.25
2024-02-24T11:44:46.918Z,95780.22
2024-02-24T11:47:18.250Z,95777.63
2024-02-24T11:49:47.216Z,95781.16
2024-02-24T11:52:17.408Z,95792.69
2024-02-24T11:54:45.262Z,95778.75
2024-02-24T11:57:13.110Z,95792.72
2024-02-24T11:59:41.089Z,95778.31
2024-02-24T12:02:07.544Z,95785.91
2024-02-24T12:04:34.073Z,95782.41
2024-02-24T12:07:02.672Z,95777.72
2024-02-24T12:09:29.901Z,95781.66
2024-02-24T12:11:57.714Z,95789.25
2024-02-24T12:14:28.233Z,95784.81
2024-02-24T12:16:57.670Z,95773.56
2024-02-24T12:19:26.278Z,95775.53
2024-02-24T12:21:52.728Z,95777.19
2024-02-24T12:24:29.341Z,95775.38
2024-02-24T12:27:00.569Z,95791.28
2024-02-24T12:29:29.195Z,95786.28
2024-02-24T12:31:56.843Z,95785.34
2024-02-24T12:34:24.417Z,95784.00
2024-02-24T12:36:56.305Z,95780.03
2024-02-24T12:39:22.830Z,95771.50
2024-02-24T12:41:49.204Z,95796.38
2024-02-24T12:44:15.649Z,95791.66
2024-02-24T12:46:42.127Z,95784.13
2024-02-24T12:49:08.638Z,95794.72
2024-02-24T12:51:35.911Z,95771.97
2024-02-24T12:54:05.671Z,95790.75
2024-02-24T12:56:32.315Z,95793.50
2024-02-24T12:59:02.953Z,95794.41
2024-02-24T13:01:29.318Z,95792.91
2024-02-24T13:03:56.038Z,95791.22
2024-02-24T13:06:22.644Z,95785.47
2024-02-24T13:08:49.141Z,95812.84
2024-02-24T13:11:15.765Z,95811.00
2024-02-24T13:13:42.211Z,95812.63
2024-02-24T13:16:08.550Z,95806.69
2024-02-24T13:18:35.013Z,95819.00
2024-02-24T13:21:01.521Z,95817.19
2024-02-24T13:23:27.865Z,95805.94
2024-02-24T13:25:54.236Z,95809.72
2024-02-24T13:28:20.582Z,95815.63
2024-02-24T13:30:46.938Z,95827.16
2024-02-24T13:33:13.427Z,95814.88
2024-02-24T13:35:39.890Z,95834.44
2024-02-24T13:38:06.242Z,95824.91
2024-02-24T13:40:32.725Z,95843.16
2024-02-24T13:42:59.509Z,95848.88
2024-02-24T13:45:25.825Z,95844.63
2024-02-24T13:47:53.608Z,95839.66
2024-02-24T13:50:23.262Z,95852.09
2024-02-24T13:52:49.676Z,95844.53
2024-02-24T13:55:16.215Z,95847.81
2024-02-24T13:57:42.657Z,95857.84
2024-02-24T14:00:11.774Z,95847.22
2024-02-24T14:02:38.352Z,95845.09
2024-02-24T14:05:05.024Z,95854.34
2024-02-24T14:07:31.397Z,95854.88
2024-02-24T14:09:57.770Z,95853.50
2024-02-24T14:12:24.765Z,95844.66
2024-02-24T14:14:51.328Z,95853.50
2024-02-24T14:17:17.816Z,95848.50
2024-02-24T14:19:44.241Z,95859.28
2024-02-24T14:22:10.603Z,95861.41
2024-02-24T14:24:36.935Z,95861.75
2024-02-24T14:27:03.375Z,95867.66
2024-02-24T14:29:29.773Z,95864.44
2024-02-24T14:31:58.464Z,95860.63
2024-02-24T14:34:24.995Z,95858.66
2024-02-24T14:36:53.676Z,95864.59
2024-02-24T14:39:21.443Z,95853.94
2024-02-24T14:41:47.937Z,95861.22
2024-02-24T14:44:14.313Z,95865.78
2024-02-24T14:47:06.102Z,95852.75
2024-02-24T14:49:33.901Z,95874.91
2024-02-24T14:52:01.520Z,95875.84
2024-02-24T14:54:28.182Z,95881.00
2024-02-24T14:56:55.317Z,95878.59
2024-02-24T14:59:21.730Z,95886.19
2024-02-24T15:01:48.659Z,95892.72
2024-02-24T15:04:15.116Z,95892.06
2024-02-24T15:06:45.536Z,95894.34
2024-02-24T15:09:12.290Z,95893.28
2024-02-24T15:11:45.611Z,95890.09
2024-02-24T15:14:12.030Z,95894.66
2024-02-24T15:16:38.648Z,95893.88
2024-02-24T15:19:05.140Z,95886.63
2024-02-24T15:21:31.592Z,95894.25
2024-02-24T15:23:57.994Z,95889.34
2024-02-24T15:26:24.849Z,95900.28
2024-02-24T15:28:51.361Z,95896.50
2024-02-24T15:31:18.854Z,95893.00
2024-02-24T15:33:45.309Z,95892.97
2024-02-24T15:36:12.180Z,95897.53
2024-02-24T15:38:38.591Z,95906.63
2024-02-24T15:41:04.970Z,95897.69
2024-02-24T15:43:31.306Z,95910.44
2024-02-24T15:45:58.148Z,95911.34
2024-02-24T15:48:24.759Z,95912.72
2024-02-24T15:50:51.379Z,95912.56
2024-02-24T15:53:17.841Z,95920.75
2024-02-24T15:55:44.277Z,95923.00
2024-02-24T15:58:10.608Z,95926.97
2024-02-24T16:00:37.818Z,95924.53
2024-02-24T16:03:05.368Z,95916.31
2024-02-24T16:05:31.944Z,95930.31
2024-02-24T16:07:58.289Z,95927.25
2024-02-24T16:10:24.625Z,95940.13
2024-02-24T16:12:51.375Z,95929.38
2024-02-24T16:15:17.751Z,95939.84
2024-02-24T16:17:44.099Z,95946.50
2024-02-24T16:20:10.916Z,95944.84
2024-02-24T16:22:37.272Z,95943.19
2024-02-24T16:25:03.887Z,95951.38
2024-02-24T16:27:30.216Z,95950.44
2024-02-24T16:29:57.025Z,95948.34
2024-02-24T16:32:23.487Z,95965.66
2024-02-24T16:34:49.881Z,95960.81
2024-02-24T16:37:16.248Z,95969.00
2024-02-24T16:39:42.586Z,95975.66
2024-02-24T16:42:09.021Z,95965.94
2024-02-24T16:44:35.411Z,95969.75
2024-02-24T16:47:01.787Z,95960.16
2024-02-24T16:49:28.206Z,95961.97
2024-02-24T16:51:54.751Z,95974.63
2024-02-24T16:54:21.238Z,95973.81
2024-02-24T16:56:47.688Z,95974.59
2024-02-24T16:59:14.061Z,95973.94
2024-02-24T17:01:40.509Z,95972.44
2024-02-24T17:04:06.917Z,95988.00
2024-02-24T17:06:33.619Z,95985.28
2024-02-24T17:09:00.163Z,95997.25
2024-02-24T17:11:28.366Z,96008.38
2024-02-24T17:13:54.830Z,96004.56
2024-02-24T17:16:21.159Z,96010.63
2024-02-24T17:18:48.009Z,96018.84
2024-02-24T17:21:14.561Z,96019.31
2024-02-24T17:23:42.817Z,96021.38
2024-02-24T17:26:10.207Z,96021.31
2024-02-24T17:28:36.558Z,96017.03
2024-02-24T17:31:02.999Z,96027.91
2024-02-24T17:33:29.347Z,96032.78
2024-02-24T17:35:55.854Z,96024.03
2024-02-24T17:38:23.207Z,96023.69
2024-02-24T17:40:49.757Z,96033.72
2024-02-24T17:43:16.235Z,96022.22
2024-02-24T17:45:42.606Z,96036.47
2024-02-24T17:48:09.231Z,96034.31
2024-02-24T17:50:35.641Z,96041.00
2024-02-24T17:53:02.741Z,96042.03
2024-02-24T17:55:29.182Z,96033.97
2024-02-24T17:57:55.678Z,96038.81
2024-02-24T18:00:23.645Z,96031.47
2024-02-24T18:02:50.049Z,96036.44
2024-02-24T18:05:18.636Z,96027.50
2024-02-24T18:07:45.075Z,96032.16
2024-02-24T18:10:11.704Z,96043.84
2024-02-24T18:12:38.910Z,96035.31
2024-02-24T18:15:05.836Z,96032.06
2024-02-24T18:17:32.311Z,96045.84
2024-02-24T18:19:58.655Z,96048.16
2024-02-24T18:22:25.008Z,96046.06
2024-02-24T18:24:51.709Z,96048.44
2024-02-24T18:27:18.032Z,96044.25
2024-02-24T18:29:45.441Z,96042.25
2024-02-24T18:32:11.857Z,96046.91
2024-02-24T18:34:38.851Z,96048.53
2024-02-24T18:37:05.349Z,96059.88
2024-02-24T18:39:31.782Z,96056.91
2024-02-24T18:41:58.265Z,96048.41
2024-02-24T18:44:24.727Z,96046.81
2024-02-24T18:46:51.192Z,96043.34
2024-02-24T18:49:17.663Z,96059.53
2024-02-24T18:51:44.059Z,96065.22
2024-02-24T18:54:10.440Z,96048.00
2024-02-24T18:56:36.869Z,96059.88
2024-02-24T18:59:05.842Z,96065.50
2024-02-24T19:01:33.196Z,96058.16
2024-02-24T19:03:59.589Z,96066.81
2024-02-24T19:06:26.140Z,96060.53
2024-02-24T19:08:52.544Z,96063.31
2024-02-24T19:11:19.010Z,96060.97
2024-02-24T19:13:45.385Z,96066.50
2024-02-24T19:16:11.741Z,96062.09
2024-02-24T19:18:38.233Z,96056.31
2024-02-24T19:21:05.910Z,96056.78
2024-02-24T19:23:34.638Z,96048.66
2024-02-24T19:26:01.315Z,96068.50
2024-02-24T19:28:27.684Z,96066.84
2024-02-24T19:30:54.051Z,96065.81
2024-02-24T19:33:21.516Z,96070.56
2024-02-24T19:35:48.109Z,96072.31
2024-02-24T19:38:14.463Z,96073.00
2024-02-24T19:40:42.917Z,96079.44
2024-02-24T19:43:09.571Z,96076.84
2024-02-24T19:45:36.213Z,96078.19
2024-02-24T19:48:02.732Z,96087.72
2024-02-24T19:50:29.255Z,96082.31
2024-02-24T19:52:55.652Z,96081.72
2024-02-24T19:55:22.679Z,96082.31
2024-02-24T19:57:49.124Z,96067.19
2024-02-24T20:00:15.915Z,96059.44
2024-02-24T20:02:42.274Z,96056.88
2024-02-24T20:05:09.330Z,96054.38
2024-02-24T20:07:35.740Z,96056.22
2024-02-24T20:10:02.130Z,96048.53
2024-02-24T20:12:28.602Z,96053.19
2024-02-24T20:14:55.061Z,96058.31
2024-02-24T20:17:21.448Z,96061.75
2024-02-24T20:19:47.919Z,96068.22
2024-02-24T20:22:14.535Z,96065.13
2024-02-24T20:24:41.131Z,96063.28
2024-02-24T20:27:08.740Z,96060.88
2024-02-24T20:29:35.103Z,96070.41
2024-02-24T20:32:01.432Z,96083.88
2024-02-24T20:34:28.209Z,96074.25
2024-02-24T20:36:54.714Z,96080.06
2024-02-24T20:39:21.639Z,96061.66
2024-02-24T20:41:48.026Z,96070.88
2024-02-24T20:44:14.451Z,96069.66
2024-02-24T20:46:45.845Z,96067.69
2024-02-24T20:49:13.482Z,96080.19
2024-02-24T20:51:39.914Z,96084.53
2024-02-24T20:54:06.473Z,96076.63
2024-02-24T20:56:33.008Z,96077.84
2024-02-24T20:58:59.744Z,96079.13
2024-02-24T21:01:27.976Z,96077.16
2024-02-24T21:03:55.260Z,96090.19
2024-02-24T21:06:21.858Z,96089.69
2024-02-24T21:08:48.351Z,96081.78
2024-02-24T21:11:15.028Z,96077.91
2024-02-24T21:13:41.652Z,96058.84
2024-02-24T21:16:08.525Z,96077.16
2024-02-24T21:18:35.178Z,96084.28
2024-02-24T21:21:01.718Z,96083.81
2024-02-24T21:23:28.283Z,96078.41
2024-02-24T21:25:54.655Z,96094.00
2024-02-24T21:28:21.064Z,96100.41
2024-02-24T21:30:48.413Z,96082.84
2024-02-24T21:33:15.140Z,96098.63
2024-02-24T21:35:41.898Z,96095.78
2024-02-24T21:38:08.275Z,96088.63
2024-02-24T21:40:34.683Z,96073.81
2024-02-24T21:43:04.617Z,96088.56
2024-02-24T21:45:32.087Z,96088.56
2024-02-24T21:47:58.678Z,96085.50
2024-02-24T21:50:25.762Z,96089.75
2024-02-24T21:52:52.265Z,96089.47
2024-02-24T21:55:21.063Z,96096.13
2024-02-24T21:57:47.411Z,96095.38
2024-02-24T22:00:18.185Z,96085.94
2024-02-24T22:02:44.590Z,96085.91
2024-02-24T22:05:11.245Z,96087.44
2024-02-24T22:07:37.587Z,96092.56
2024-02-24T22:10:04.560Z,96083.38
2024-02-24T22:12:30.917Z,96084.69
2024-02-24T22:14:57.315Z,96080.09
2024-02-24T22:17:23.653Z,96079.81
2024-02-24T22:19:50.092Z,96082.13
2024-02-24T22:22:16.522Z,96075.16
2024-02-24T22:24:44.631Z,96065.75
2024-02-24T22:27:12.118Z,96060.66
2024-02-24T22:29:41.189Z,96065.75
2024-02-24T22:32:07.740Z,96054.03
2024-02-24T22:34:34.214Z,96060.13
2024-02-24T22:37:00.611Z,96053.25
2024-02-24T22:39:27.129Z,96068.31
2024-02-24T22:41:53.526Z,96064.47
2024-02-24T22:44:20.030Z,96067.25
2024-02-24T22:46:46.431Z,96053.19
2024-02-24T22:49:13.005Z,96050.41
2024-02-24T22:51:39.558Z,96055.22
2024-02-24T22:54:06.082Z,96062.56
2024-02-24T22:56:32.709Z,96057.19
2024-02-24T22:59:01.813Z,96055.63
2024-02-24T23:01:28.917Z,96055.91
2024-02-24T23:03:56.404Z,96059.72
2024-02-24T23:06:22.924Z,96062.47
2024-02-24T23:08:49.498Z,96059.13
2024-02-24T23:11:25.672Z,96064.19
2024-02-24T23:14:03.730Z,96059.56
2024-02-24T23:16:30.063Z,96063.66
2024-02-24T23:18:58.835Z,96057.06
2024-02-24T23:21:29.861Z,96068.78
2024-02-24T23:23:56.278Z,96071.06
2024-02-24T23:26:22.708Z,96073.91
2024-02-24T23:28:49.044Z,96060.09
2024-02-24T23:31:15.435Z,96067.25
2024-02-24T23:33:41.924Z,96072.66
2024-02-24T23:36:08.422Z,96060.16
2024-02-24T23:38:34.848Z,96065.00
2024-02-24T23:41:01.207Z,96058.66
2024-02-24T23:43:27.578Z,96059.13
2024-02-24T23:45:53.915Z,96055.56
2024-02-24T23:48:20.688Z,96058.59
2024-02-24T23:50:47.108Z,96056.50
2024-02-24T23:53:13.605Z,96033.34
2024-02-24T23:55:40.502Z,96056.22
2024-02-24T23:58:06.887Z,96044.19
